Time;durP1;ratioP1;P1;durP2;ratioP2;P2;SDS_P1;SDS_P2;PMS_P1;PMS_P2;Temp;Humidity;BMP_temperature;BMP_pressure;BME280_temperature;BME280_humidity;BME280_pressure;Samples;Min_cycle;Max_cycle;Signal;HPM_P1;HPM_P2
2021/05/06 00:33:19;;;;;;;1.35;0.40;;;11.90;83.20;;;;;;5023584;28;20395;-69
2021/05/06 00:35:47;;;;;;;0.98;0.50;;;11.80;83.50;;;;;;5022905;28;20500;-69
2021/05/06 00:38:28;;;;;;;1.38;0.50;;;11.80;83.10;;;;;;5014245;28;20029;-68
2021/05/06 00:41:29;;;;;;;0.57;0.20;;;11.80;83.10;;;;;;5014562;28;20033;-68
2021/05/06 00:44:32;;;;;;;0.60;0.30;;;11.90;83.60;;;;;;5014124;28;20026;-69
2021/05/06 01:13:00;;;;;;;1.70;0.40;;;11.30;84.10;;;;;;5013413;28;20074;-69
2021/05/06 01:15:25;;;;;;;0.95;0.45;;;11.30;84.10;;;;;;5013737;28;20124;-69
2021/05/06 01:17:52;;;;;;;1.35;0.50;;;11.30;83.40;;;;;;5013255;28;20030;-68
2021/05/06 01:20:18;;;;;;;3.25;0.90;;;11.30;82.80;;;;;;5013407;28;20049;-68
2021/05/06 01:22:44;;;;;;;2.05;1.13;;;11.50;82.40;;;;;;5013615;28;20060;-68
2021/05/06 01:25:12;;;;;;;1.35;0.45;;;11.50;81.50;;;;;;5013235;28;20026;-68
2021/05/06 01:32:42;;;;;;;0.73;0.35;;;11.50;81.80;;;;;;5033320;28;20392;-69
2021/05/06 01:35:14;;;;;;;3.47;0.50;;;11.50;81.40;;;;;;5032204;28;20070;-68
2021/05/06 01:42:57;;;;;;;2.45;0.73;;;11.40;82.10;;;;;;5029188;28;20526;-69
2021/05/06 01:48:16;;;;;;;0.50;0.20;;;11.40;81.80;;;;;;5012704;28;20109;-69
2021/05/06 01:58:52;;;;;;;2.47;0.40;;;11.10;82.80;;;;;;5012791;28;20076;-68
2021/05/06 02:01:18;;;;;;;1.10;0.40;;;11.10;82.40;;;;;;5012751;28;20612;-68
2021/05/06 02:03:43;;;;;;;1.40;0.65;;;11.10;83.10;;;;;;5012831;28;20033;-69
2021/05/06 02:06:09;;;;;;;1.10;0.40;;;11.00;83.10;;;;;;5012661;28;20384;-68
2021/05/06 02:08:35;;;;;;;1.23;0.43;;;11.00;82.80;;;;;;5012752;28;20030;-68
2021/05/06 02:11:02;;;;;;;0.40;0.30;;;11.00;83.10;;;;;;5012315;28;20045;-69
2021/05/06 02:13:28;;;;;;;1.05;0.20;;;10.90;83.10;;;;;;5012687;28;20030;-69
2021/05/06 02:16:06;;;;;;;1.58;0.40;;;11.00;82.50;;;;;;5012587;28;20112;-68
2021/05/06 02:18:36;;;;;;;1.75;0.70;;;10.90;82.70;;;;;;5011968;28;20080;-69
2021/05/06 02:21:02;;;;;;;1.75;0.50;;;11.00;82.90;;;;;;5012469;28;20029;-68
2021/05/06 02:23:27;;;;;;;0.93;0.40;;;11.00;82.70;;;;;;5012503;28;20026;-68
2021/05/06 02:25:53;;;;;;;1.08;0.65;;;11.00;82.70;;;;;;5012142;28;20035;-68
2021/05/06 02:28:19;;;;;;;2.53;0.70;;;10.90;83.50;;;;;;5012352;28;20492;-69
2021/05/06 02:30:44;;;;;;;2.20;0.82;;;10.80;83.20;;;;;;5012297;28;20026;-68
2021/05/06 02:33:10;;;;;;;1.65;0.50;;;10.80;84.10;;;;;;5012168;28;20480;-69
2021/05/06 02:35:37;;;;;;;1.30;0.38;;;10.50;85.10;;;;;;5011711;28;20488;-69
2021/05/06 02:38:05;;;;;;;1.33;0.60;;;10.60;83.80;;;;;;5024958;28;20036;-69
2021/05/06 02:40:32;;;;;;;0.77;0.28;;;10.60;83.30;;;;;;5031748;28;20365;-69
2021/05/06 02:42:57;;;;;;;1.08;0.35;;;10.60;83.50;;;;;;5031874;28;20411;-68
2021/05/06 02:45:23;;;;;;;0.90;0.38;;;10.60;83.30;;;;;;5028718;28;20025;-69
2021/05/06 02:47:49;;;;;;;0.73;0.32;;;10.60;83.40;;;;;;5011726;28;20030;-69
2021/05/06 02:50:15;;;;;;;1.60;0.60;;;10.50;84.50;;;;;;5011289;28;20048;-69
2021/05/06 02:52:50;;;;;;;0.95;0.50;;;10.40;85.00;;;;;;5030237;28;20029;-68
2021/05/06 02:57:58;;;;;;;1.88;0.70;;;10.20;85.60;;;;;;5012199;28;19996;-68
2021/05/06 03:03:08;;;;;;;1.13;0.40;;;10.10;86.20;;;;;;5006963;28;20048;-68
2021/05/06 03:05:37;;;;;;;0.77;0.28;;;10.10;86.10;;;;;;5004944;28;20076;-68
2021/05/06 03:08:08;;;;;;;1.30;0.45;;;9.80;87.00;;;;;;5009318;28;20558;-68
2021/05/06 03:24:23;;;;;;;1.20;0.50;;;9.00;88.00;;;;;;5003816;28;20087;-68
2021/05/06 03:26:48;;;;;;;1.38;0.50;;;9.00;88.30;;;;;;5003955;28;20460;-68
2021/05/06 03:29:25;;;;;;;3.00;0.77;;;9.10;87.60;;;;;;5004129;28;20045;-69
2021/05/06 03:42:39;;;;;;;0.75;0.45;;;9.30;85.90;;;;;;5014406;28;20076;-69
2021/05/06 04:36:06;;;;;;;2.40;1.00;;;8.70;88.20;;;;;;5025919;28;20136;-69
2021/05/06 04:38:32;;;;;;;1.42;0.60;;;8.60;88.80;;;;;;5026682;28;20136;-69
2021/05/06 05:04:46;;;;;;;1.98;0.55;;;9.10;88.80;;;;;;5006323;28;20057;-70
2021/05/06 05:07:19;;;;;;;1.90;0.47;;;9.00;88.50;;;;;;5012667;28;20036;-68
2021/05/06 05:20:43;;;;;;;1.15;0.63;;;8.70;90.60;;;;;;5005896;28;20033;-69
2021/05/06 05:23:34;;;;;;;1.95;0.75;;;8.90;90.00;;;;;;5005941;28;20022;-68
2021/05/06 05:26:05;;;;;;;3.05;0.60;;;9.00;89.60;;;;;;5026139;28;20623;-69
2021/05/06 05:28:31;;;;;;;2.65;0.90;;;9.20;87.60;;;;;;5026269;28;20036;-68
2021/05/06 05:30:57;;;;;;;2.22;0.98;;;9.00;90.20;;;;;;5023718;28;20127;-69
2021/05/06 05:33:24;;;;;;;2.47;0.63;;;8.90;90.80;;;;;;5005743;28;20380;-69
2021/05/06 05:38:27;;;;;;;2.72;1.05;;;9.30;90.00;;;;;;5020474;28;20033;-70
2021/05/06 05:56:43;;;;;;;1.45;0.65;;;9.70;91.50;;;;;;5017016;28;20570;-69
2021/05/06 05:59:09;;;;;;;2.70;0.90;;;10.00;90.70;;;;;;5005436;28;20034;-69
2021/05/06 06:01:35;;;;;;;3.08;0.70;;;10.10;90.40;;;;;;5013677;28;20053;-69
2021/05/06 06:04:01;;;;;;;2.33;0.80;;;10.20;89.10;;;;;;5004874;28;20041;-69
2021/05/06 06:06:27;;;;;;;2.50;0.80;;;10.30;86.50;;;;;;5005483;28;20517;-70
2021/05/06 06:08:52;;;;;;;1.25;0.50;;;10.40;88.00;;;;;;5008356;28;20558;-68
2021/05/06 06:11:19;;;;;;;0.95;0.50;;;10.60;88.00;;;;;;5003952;28;20054;-68
2021/05/06 06:13:50;;;;;;;2.08;1.00;;;10.60;88.10;;;;;;5004243;28;20026;-69
2021/05/06 06:16:28;;;;;;;1.42;0.65;;;10.60;87.30;;;;;;5005813;28;20037;-69
2021/05/06 06:18:59;;;;;;;2.78;0.80;;;10.70;87.60;;;;;;5004800;28;20025;-69
2021/05/06 06:24:04;;;;;;;6.40;1.15;;;11.10;86.80;;;;;;5011199;28;20037;-69
2021/05/06 06:26:30;;;;;;;4.22;0.60;;;11.50;87.10;;;;;;5020248;28;20045;-69
2021/05/06 06:29:02;;;;;;;3.38;0.70;;;11.60;84.40;;;;;;5024173;28;20025;-69
2021/05/06 06:31:32;;;;;;;1.55;0.70;;;11.90;84.50;;;;;;5021547;28;20432;-70
2021/05/06 06:33:58;;;;;;;2.08;0.75;;;12.00;82.80;;;;;;5004189;28;20381;-70
2021/05/06 06:36:24;;;;;;;2.85;0.60;;;11.90;83.70;;;;;;5014416;28;20052;-69
2021/05/06 06:38:50;;;;;;;2.67;0.88;;;12.00;85.90;;;;;;5023743;28;20025;-69
2021/05/06 06:41:16;;;;;;;1.67;0.55;;;11.80;85.00;;;;;;5010483;28;20617;-70
2021/05/06 06:43:48;;;;;;;1.52;0.60;;;12.10;87.40;;;;;;5004988;28;20014;-71
2021/05/06 06:46:15;;;;;;;1.17;0.40;;;12.20;83.60;;;;;;5004305;28;20022;-71
2021/05/06 06:48:41;;;;;;;3.45;0.63;;;12.30;84.50;;;;;;5006871;28;20032;-71
2021/05/06 06:51:07;;;;;;;4.18;1.23;;;12.60;84.40;;;;;;5015540;28;20038;-75
2021/05/06 06:54:28;;;;;;;4.72;1.08;;;12.90;84.80;;;;;;5018759;28;20112;-78
2021/05/06 06:57:05;;;;;;;3.25;0.80;;;13.10;84.80;;;;;;5009438;28;20080;-74
2021/05/06 06:59:31;;;;;;;3.30;0.75;;;13.40;85.10;;;;;;5008738;28;20033;-73
2021/05/06 07:01:56;;;;;;;1.20;0.50;;;13.80;84.10;;;;;;5011484;28;20033;-73
2021/05/06 07:04:22;;;;;;;1.45;0.60;;;14.20;82.30;;;;;;5009188;28;20037;-71
2021/05/06 07:06:48;;;;;;;2.58;0.80;;;14.30;81.30;;;;;;5014750;28;20392;-76
2021/05/06 07:09:14;;;;;;;4.70;0.88;;;14.50;81.40;;;;;;5012383;28;20022;-73
2021/05/06 07:11:40;;;;;;;1.95;0.77;;;14.90;81.70;;;;;;5012027;28;20411;-75
2021/05/06 07:14:06;;;;;;;1.75;0.65;;;15.40;78.40;;;;;;5011078;28;20022;-74
2021/05/06 07:16:32;;;;;;;2.70;0.63;;;16.70;75.60;;;;;;5006914;28;20498;-74
2021/05/06 07:18:58;;;;;;;1.65;0.55;;;18.30;75.10;;;;;;5005111;28;20022;-74
2021/05/06 07:21:25;;;;;;;2.45;0.85;;;19.10;72.00;;;;;;5012776;28;20088;-75
2021/05/06 07:23:55;;;;;;;2.05;0.65;;;18.80;72.50;;;;;;5011728;28;20030;-73
2021/05/06 07:26:24;;;;;;;1.40;0.50;;;18.40;70.00;;;;;;5007546;28;20033;-74
2021/05/06 07:28:50;;;;;;;1.70;0.80;;;18.40;72.00;;;;;;5010334;28;20025;-74
2021/05/06 07:31:17;;;;;;;2.13;0.70;;;17.70;71.90;;;;;;5013840;28;20092;-72
2021/05/06 07:33:45;;;;;;;2.42;0.90;;;17.50;73.90;;;;;;5013495;28;20653;-72
2021/05/06 07:36:11;;;;;;;2.67;0.52;;;17.70;72.80;;;;;;5024970;28;20033;-73
2021/05/06 07:38:37;;;;;;;2.40;0.50;;;18.40;71.40;;;;;;5026614;28;20503;-72
2021/05/06 07:41:04;;;;;;;1.88;0.73;;;17.60;72.10;;;;;;5013899;28;20631;-72
2021/05/06 07:43:31;;;;;;;1.80;0.90;;;16.50;72.50;;;;;;5007467;28;20038;-72
2021/05/06 07:46:00;;;;;;;2.50;0.70;;;15.70;75.90;;;;;;5017754;28;20026;-73
2021/05/06 07:48:26;;;;;;;1.27;0.70;;;15.60;76.40;;;;;;5028133;28;20480;-72
2021/05/06 07:50:53;;;;;;;1.00;0.50;;;15.10;77.40;;;;;;5027712;28;20029;-73
2021/05/06 07:53:34;;;;;;;3.38;0.60;;;14.70;77.70;;;;;;5026452;28;20057;-72
2021/05/06 07:56:01;;;;;;;2.00;0.60;;;14.30;77.70;;;;;;5022452;28;20025;-73
2021/05/06 07:58:26;;;;;;;2.90;0.88;;;14.20;79.70;;;;;;5010657;28;20033;-72
2021/05/06 08:00:52;;;;;;;4.82;1.25;;;14.10;79.20;;;;;;5007937;28;20036;-72
2021/05/06 08:03:18;;;;;;;4.38;0.75;;;14.00;80.40;;;;;;5007891;28;20493;-72
2021/05/06 08:05:44;;;;;;;11.10;1.95;;;14.00;80.90;;;;;;5007395;28;20069;-72
2021/05/06 08:08:10;;;;;;;5.95;1.10;;;14.00;79.50;;;;;;5007332;28;20078;-73
2021/05/06 08:10:36;;;;;;;1.55;0.57;;;13.90;80.30;;;;;;5007852;28;20026;-72
2021/05/06 08:13:02;;;;;;;3.35;0.70;;;14.70;77.80;;;;;;5007278;28;20050;-73
2021/05/06 08:15:29;;;;;;;2.08;0.63;;;16.90;76.10;;;;;;5014004;28;20609;-72
2021/05/06 08:17:54;;;;;;;3.25;1.27;;;17.10;74.50;;;;;;5011624;28;20500;-73
2021/05/06 08:20:20;;;;;;;1.92;0.80;;;17.40;73.60;;;;;;5007268;28;20038;-72
2021/05/06 08:22:46;;;;;;;1.33;0.50;;;17.70;74.10;;;;;;5007527;28;20030;-72
2021/05/06 08:25:14;;;;;;;5.15;1.00;;;17.20;73.80;;;;;;5007269;28;20430;-72
2021/05/06 08:27:40;;;;;;;1.77;0.70;;;17.80;73.40;;;;;;5007058;28;20022;-72
2021/05/06 08:30:12;;;;;;;1.65;0.70;;;16.20;74.90;;;;;;5006968;28;20029;-73
2021/05/06 08:32:38;;;;;;;2.10;0.70;;;16.50;77.10;;;;;;5011977;28;20124;-73
2021/05/06 08:35:06;;;;;;;2.35;0.60;;;16.80;74.90;;;;;;5007046;28;20022;-73
2021/05/06 08:37:32;;;;;;;1.88;0.80;;;16.70;76.00;;;;;;5015622;28;20021;-72
2021/05/06 08:39:58;;;;;;;4.68;0.90;;;16.40;77.80;;;;;;5025905;28;20091;-73
2021/05/06 08:42:25;;;;;;;4.60;1.23;;;15.80;77.20;;;;;;5019498;28;20072;-73
2021/05/06 08:44:51;;;;;;;3.42;1.05;;;15.40;79.50;;;;;;5007139;28;20123;-73
2021/05/06 08:47:20;;;;;;;4.63;0.90;;;16.10;78.20;;;;;;5006217;28;20022;-73
2021/05/06 08:49:46;;;;;;;2.03;0.90;;;15.90;77.30;;;;;;5025522;28;20025;-73
2021/05/06 08:52:21;;;;;;;3.60;0.55;;;15.50;77.60;;;;;;5026264;28;20095;-72
2021/05/06 08:54:52;;;;;;;2.70;0.90;;;15.80;77.30;;;;;;5009139;28;20030;-72
2021/05/06 08:57:22;;;;;;;74.43;6.70;;;15.80;78.60;;;;;;5006929;28;20046;-72
2021/05/06 08:59:49;;;;;;;4.43;0.80;;;15.80;78.20;;;;;;5006719;28;20022;-72
2021/05/06 09:02:15;;;;;;;3.65;0.60;;;15.50;78.60;;;;;;5006625;28;20812;-72
2021/05/06 09:04:42;;;;;;;5.18;0.77;;;15.40;76.90;;;;;;5014141;28;20045;-72
2021/05/06 09:07:09;;;;;;;8.60;1.13;;;15.80;77.50;;;;;;5020087;28;20388;-72
2021/05/06 09:09:35;;;;;;;5.05;0.73;;;16.00;77.10;;;;;;5006713;28;20108;-72
2021/05/06 09:12:08;;;;;;;1.42;0.50;;;16.20;77.00;;;;;;5006121;28;20049;-72
2021/05/06 09:14:35;;;;;;;2.70;0.60;;;16.00;77.70;;;;;;5006342;28;20041;-72
2021/05/06 09:17:02;;;;;;;0.90;0.50;;;16.50;78.80;;;;;;5005841;28;20033;-71
2021/05/06 09:19:28;;;;;;;2.17;0.90;;;16.00;75.90;;;;;;5006583;28;20033;-72
2021/05/06 09:21:55;;;;;;;3.65;0.80;;;16.20;77.00;;;;;;5006220;28;20042;-71
2021/05/06 09:24:28;;;;;;;2.00;0.80;;;16.10;76.10;;;;;;5006069;28;20018;-71
2021/05/06 09:26:59;;;;;;;1.53;0.67;;;16.00;75.80;;;;;;5006208;28;20112;-73
2021/05/06 09:29:35;;;;;;;1.42;0.50;;;16.20;79.20;;;;;;5006503;28;20116;-72
2021/05/06 09:32:21;;;;;;;8.57;1.17;;;16.50;77.10;;;;;;5004384;28;20061;-72
2021/05/06 09:34:49;;;;;;;4.20;0.80;;;16.80;77.20;;;;;;5004818;28;20030;-71
2021/05/06 09:37:41;;;;;;;3.50;1.02;;;16.80;77.00;;;;;;5006000;28;20133;-72
2021/05/06 09:40:08;;;;;;;1.17;0.47;;;16.90;77.10;;;;;;5017205;28;20030;-72
2021/05/06 09:42:44;;;;;;;4.35;0.90;;;17.10;77.20;;;;;;5010811;28;20471;-72
2021/05/06 09:45:20;;;;;;;3.22;0.98;;;17.30;77.30;;;;;;5012653;28;20052;-71
2021/05/06 09:48:10;;;;;;;3.92;1.40;;;17.60;75.40;;;;;;5010088;28;20029;-72
2021/05/06 09:50:37;;;;;;;2.38;0.93;;;17.60;75.30;;;;;;5005948;28;20538;-71
2021/05/06 09:53:15;;;;;;;1.40;0.80;;;17.80;76.80;;;;;;5008274;28;20557;-72
2021/05/06 09:55:48;;;;;;;4.68;0.73;;;17.50;74.50;;;;;;5023445;28;20350;-72
2021/05/06 09:58:30;;;;;;;2.05;1.23;;;17.50;75.40;;;;;;5004370;28;20054;-72
2021/05/06 10:00:56;;;;;;;3.30;1.00;;;18.00;75.40;;;;;;5005354;28;20041;-72
2021/05/06 10:03:32;;;;;;;8.23;1.75;;;18.60;74.90;;;;;;5005186;28;20033;-72
2021/05/06 10:06:09;;;;;;;2.22;1.00;;;18.60;76.20;;;;;;5005385;28;20030;-71
2021/05/06 10:08:38;;;;;;;6.90;2.85;;;18.60;75.20;;;;;;5005264;28;20034;-72
2021/05/06 10:11:11;;;;;;;6.10;0.85;;;18.60;77.70;;;;;;5005073;28;20038;-71
2021/05/06 10:13:42;;;;;;;5.63;1.23;;;18.70;77.20;;;;;;5004666;28;20515;-72
2021/05/06 10:16:09;;;;;;;2.03;0.80;;;18.80;75.90;;;;;;5020675;28;20542;-72
2021/05/06 10:18:39;;;;;;;4.57;1.25;;;18.90;77.40;;;;;;5025290;28;20033;-72
2021/05/06 10:21:06;;;;;;;3.38;1.13;;;19.20;75.50;;;;;;5025038;28;20021;-72
2021/05/06 10:23:32;;;;;;;4.20;1.10;;;18.90;75.70;;;;;;5024106;28;20013;-72
2021/05/06 10:25:58;;;;;;;2.30;0.95;;;18.60;75.60;;;;;;5004945;28;20413;-72
2021/05/06 10:28:25;;;;;;;2.22;1.00;;;18.50;75.90;;;;;;5005275;28;20068;-72
2021/05/06 10:30:52;;;;;;;3.33;1.10;;;18.70;74.10;;;;;;5016027;28;20030;-72
2021/05/06 10:33:23;;;;;;;2.20;0.80;;;18.80;76.10;;;;;;5024751;28;20419;-72
2021/05/06 10:35:50;;;;;;;6.53;1.20;;;18.80;76.60;;;;;;5008011;28;20026;-72
2021/05/06 10:38:16;;;;;;;3.28;1.40;;;19.30;78.00;;;;;;5004316;28;20428;-72
2021/05/06 10:40:42;;;;;;;4.43;1.70;;;19.90;77.80;;;;;;5004701;28;20021;-72
2021/05/06 10:43:30;;;;;;;3.80;2.00;;;19.60;75.80;;;;;;5004578;28;20538;-72
2021/05/06 10:46:04;;;;;;;4.22;1.88;;;19.10;76.50;;;;;;5004287;28;20442;-72
2021/05/06 10:48:54;;;;;;;5.20;1.80;;;19.80;77.40;;;;;;5009972;28;20084;-72
2021/05/06 10:51:37;;;;;;;6.40;2.30;;;20.30;77.60;;;;;;5004624;28;20156;-72
2021/05/06 10:54:36;;;;;;;6.78;1.92;;;20.50;78.70;;;;;;5004708;28;20034;-72
2021/05/06 10:57:31;;;;;;;6.15;3.80;;;20.70;77.30;;;;;;5003293;28;20018;-71
2021/05/06 10:59:57;;;;;;;5.45;2.25;;;20.40;75.00;;;;;;5004246;28;20037;-72
2021/05/06 11:02:42;;;;;;;7.25;2.28;;;19.90;76.80;;;;;;5004651;28;20026;-72
2021/05/06 11:05:15;;;;;;;7.28;2.20;;;19.90;78.60;;;;;;5017544;28;20029;-72
2021/05/06 11:07:41;;;;;;;5.57;2.40;;;19.60;78.20;;;;;;5024336;28;20656;-72
2021/05/06 11:10:08;;;;;;;4.45;1.65;;;19.70;79.50;;;;;;5015807;28;20022;-72
2021/05/06 11:12:39;;;;;;;5.40;2.20;;;19.10;79.20;;;;;;5004264;28;20050;-72
2021/05/06 11:15:21;;;;;;;12.70;2.90;;;19.10;80.60;;;;;;5004436;28;20113;-72
2021/05/06 11:17:46;;;;;;;5.05;2.70;;;19.10;80.20;;;;;;5004592;28;20615;-72
2021/05/06 11:20:12;;;;;;;5.53;2.17;;;19.00;80.20;;;;;;5003733;28;20037;-72
2021/05/06 11:22:44;;;;;;;8.80;2.35;;;19.20;81.20;;;;;;5020051;28;20069;-72
2021/05/06 11:25:29;;;;;;;6.93;2.63;;;19.20;81.50;;;;;;5004597;28;20014;-71
2021/05/06 11:28:03;;;;;;;4.80;2.58;;;19.20;81.90;;;;;;5004548;28;20034;-72
2021/05/06 11:30:46;;;;;;;6.53;2.53;;;19.40;81.60;;;;;;5004131;28;20030;-72
2021/05/06 11:33:22;;;;;;;7.38;2.50;;;20.20;81.90;;;;;;5015812;28;20033;-72
2021/05/06 11:35:58;;;;;;;7.22;2.72;;;20.10;80.70;;;;;;5024275;28;20074;-72
2021/05/06 11:38:38;;;;;;;6.40;2.95;;;20.10;82.20;;;;;;5014966;28;20084;-72
2021/05/06 11:41:10;;;;;;;6.40;2.75;;;19.90;82.30;;;;;;5004198;28;20022;-72
2021/05/06 11:43:45;;;;;;;6.07;2.15;;;19.50;81.80;;;;;;5004137;28;20022;-72
2021/05/06 11:46:22;;;;;;;10.30;2.85;;;19.50;82.00;;;;;;5004516;28;20081;-72
2021/05/06 11:48:50;;;;;;;7.28;2.47;;;19.70;83.80;;;;;;5004338;28;20034;-72
2021/05/06 11:51:28;;;;;;;9.13;2.75;;;19.70;81.80;;;;;;5004360;28;20497;-72
2021/05/06 11:54:11;;;;;;;7.78;2.67;;;19.60;82.00;;;;;;5004177;28;20033;-72
2021/05/06 11:56:40;;;;;;;5.30;2.80;;;20.00;84.50;;;;;;5003675;28;20026;-72
2021/05/06 11:59:07;;;;;;;10.88;2.97;;;20.20;83.50;;;;;;5004250;28;20018;-72
2021/05/06 12:01:33;;;;;;;9.50;2.45;;;20.30;83.50;;;;;;5004234;28;20018;-72
2021/05/06 12:03:59;;;;;;;10.45;2.92;;;20.20;84.20;;;;;;5004131;28;20029;-72
2021/05/06 12:06:30;;;;;;;8.40;2.63;;;20.20;83.10;;;;;;5004326;28;20514;-72
2021/05/06 12:08:56;;;;;;;8.43;3.03;;;20.30;83.30;;;;;;5003943;28;20026;-72
2021/05/06 12:11:32;;;;;;;15.05;2.92;;;20.60;83.20;;;;;;5002290;28;20053;-72
2021/05/06 12:13:58;;;;;;;7.05;2.67;;;20.20;81.50;;;;;;5010863;28;20038;-72
2021/05/06 12:16:26;;;;;;;6.85;2.45;;;20.30;83.10;;;;;;5004030;28;20473;-72
2021/05/06 12:19:03;;;;;;;8.20;2.78;;;20.80;83.50;;;;;;5003973;28;20067;-72
2021/05/06 12:21:39;;;;;;;7.05;2.88;;;20.60;82.60;;;;;;5004962;28;20032;-72
2021/05/06 12:24:07;;;;;;;8.00;2.97;;;20.30;83.30;;;;;;5016425;28;20029;-72
2021/05/06 12:26:33;;;;;;;9.52;2.88;;;20.60;82.70;;;;;;5022320;28;20036;-72
2021/05/06 12:28:59;;;;;;;8.48;2.67;;;20.60;82.50;;;;;;5011399;28;20018;-72
2021/05/06 12:31:26;;;;;;;7.53;2.33;;;20.30;80.80;;;;;;5027246;28;20498;-72
2021/05/06 12:33:51;;;;;;;8.07;3.25;;;20.20;82.20;;;;;;5019627;28;20585;-72
2021/05/06 12:36:18;;;;;;;6.20;2.90;;;19.80;82.10;;;;;;5006959;28;20030;-72
2021/05/06 12:38:45;;;;;;;4.63;2.50;;;19.80;83.20;;;;;;5006936;28;20026;-72
2021/05/06 12:41:12;;;;;;;6.45;2.47;;;20.10;82.80;;;;;;5007167;28;20033;-72
2021/05/06 12:43:49;;;;;;;6.35;2.60;;;20.20;83.50;;;;;;5006951;28;20630;-72
2021/05/06 12:46:21;;;;;;;7.88;2.22;;;20.40;83.00;;;;;;5021447;28;20084;-72
2021/05/06 12:48:57;;;;;;;5.82;2.20;;;20.50;81.70;;;;;;5009167;28;20034;-72
2021/05/06 12:51:34;;;;;;;7.97;2.72;;;20.60;80.60;;;;;;5006838;28;20034;-72
2021/05/06 12:54:12;;;;;;;6.55;2.60;;;20.70;83.40;;;;;;5005391;28;20026;-72
2021/05/06 12:56:41;;;;;;;10.95;2.80;;;20.90;80.90;;;;;;5006762;28;20061;-72
2021/05/06 12:59:29;;;;;;;5.70;2.58;;;21.20;81.50;;;;;;5006306;28;20033;-72
2021/05/06 13:02:16;;;;;;;4.78;1.80;;;20.30;80.80;;;;;;5006770;28;20531;-72
2021/05/06 13:04:47;;;;;;;6.35;2.20;;;20.40;80.20;;;;;;5005875;28;20029;-72
2021/05/06 13:07:14;;;;;;;6.65;2.65;;;20.60;80.80;;;;;;5006040;28;20472;-72
2021/05/06 13:09:45;;;;;;;5.85;2.45;;;20.70;79.30;;;;;;5006934;28;20046;-72
2021/05/06 13:12:17;;;;;;;7.28;2.60;;;21.00;81.40;;;;;;5005773;28;20057;-72
2021/05/06 13:14:51;;;;;;;8.30;2.10;;;21.30;80.10;;;;;;5006433;28;20073;-72
2021/05/06 13:17:35;;;;;;;8.98;1.98;;;21.20;79.00;;;;;;5006465;28;20508;-72
2021/05/06 13:20:21;;;;;;;5.88;2.20;;;21.20;80.60;;;;;;5010264;28;20044;-71
2021/05/06 13:23:02;;;;;;;9.77;2.63;;;20.80;80.00;;;;;;5026225;28;20021;-72
2021/05/06 13:25:46;;;;;;;5.78;1.77;;;20.50;79.50;;;;;;5018075;28;20036;-72
2021/05/06 13:28:15;;;;;;;10.98;1.95;;;20.80;81.40;;;;;;5025044;28;20034;-72
2021/05/06 13:30:42;;;;;;;13.60;2.60;;;20.70;80.20;;;;;;5025689;28;20030;-72
2021/05/06 13:33:18;;;;;;;10.82;2.30;;;20.70;80.70;;;;;;5025651;28;20144;-72
2021/05/06 13:36:01;;;;;;;4.57;1.85;;;20.90;79.30;;;;;;5006471;28;20025;-72
2021/05/06 13:38:45;;;;;;;6.72;2.00;;;21.40;79.90;;;;;;5021960;28;20564;-72
2021/05/06 13:41:11;;;;;;;10.43;2.28;;;21.30;79.40;;;;;;5025767;28;20036;-72
2021/05/06 13:43:37;;;;;;;4.88;1.67;;;21.10;77.60;;;;;;5025185;28;20025;-72
2021/05/06 13:46:03;;;;;;;4.30;1.45;;;21.10;78.50;;;;;;5006314;28;20626;-72
2021/05/06 13:48:28;;;;;;;5.60;1.60;;;21.20;77.50;;;;;;5005814;28;20022;-72
2021/05/06 13:50:54;;;;;;;5.47;2.10;;;20.80;78.00;;;;;;5005758;28;20038;-73
2021/05/06 13:53:20;;;;;;;11.23;2.00;;;20.90;78.20;;;;;;5005982;28;20354;-72
2021/05/06 13:55:45;;;;;;;4.78;1.50;;;20.80;78.00;;;;;;5010260;28;20025;-72
2021/05/06 13:58:13;;;;;;;4.95;1.70;;;21.00;77.90;;;;;;5005259;28;20397;-72
2021/05/06 14:00:38;;;;;;;5.65;1.88;;;21.10;78.30;;;;;;5005696;28;20029;-72
2021/05/06 14:03:05;;;;;;;6.28;2.13;;;20.70;78.20;;;;;;5004134;28;20029;-72
2021/05/06 14:05:31;;;;;;;4.80;1.73;;;20.80;77.60;;;;;;5005333;28;20029;-72
2021/05/06 14:07:57;;;;;;;6.93;1.70;;;20.70;76.70;;;;;;5004698;28;20022;-72
2021/05/06 14:10:22;;;;;;;5.03;1.48;;;20.70;78.20;;;;;;5004018;28;20041;-72
2021/05/06 14:12:48;;;;;;;7.30;1.92;;;20.80;77.60;;;;;;5004566;28;20139;-72
2021/05/06 14:15:14;;;;;;;7.60;1.77;;;20.70;77.50;;;;;;5005021;28;20033;-72
2021/05/06 14:17:39;;;;;;;6.88;1.25;;;20.60;78.70;;;;;;5005115;28;20037;-73
2021/05/06 14:20:05;;;;;;;6.35;1.77;;;20.60;77.90;;;;;;5004879;28;20361;-72
2021/05/06 14:22:31;;;;;;;4.95;1.55;;;20.40;76.00;;;;;;5005139;28;20554;-72
2021/05/06 14:24:57;;;;;;;5.97;1.67;;;20.80;78.10;;;;;;5005478;28;20032;-72
2021/05/06 14:27:22;;;;;;;19.33;2.63;;;20.60;76.20;;;;;;5005048;28;20037;-72
2021/05/06 14:29:48;;;;;;;8.45;2.20;;;20.50;76.90;;;;;;5024082;28;20057;-72
2021/05/06 14:32:14;;;;;;;4.78;1.85;;;20.60;77.90;;;;;;5021372;28;20064;-72
2021/05/06 14:34:39;;;;;;;6.63;1.52;;;20.50;75.70;;;;;;5014075;28;20108;-72
2021/05/06 14:37:05;;;;;;;5.60;1.80;;;20.40;75.40;;;;;;5023670;28;20029;-72
2021/05/06 14:39:31;;;;;;;7.75;1.77;;;20.30;76.70;;;;;;5024783;28;20040;-72
2021/05/06 14:41:56;;;;;;;8.20;1.77;;;20.70;76.40;;;;;;5024235;28;20033;-72
2021/05/06 14:44:22;;;;;;;4.68;1.52;;;20.50;75.60;;;;;;5006153;28;20030;-72
2021/05/06 14:46:48;;;;;;;4.88;1.65;;;20.50;76.40;;;;;;5023447;28;20086;-72
2021/05/06 14:49:14;;;;;;;9.02;2.17;;;20.70;77.20;;;;;;5023191;28;20690;-72
2021/05/06 14:51:39;;;;;;;8.60;2.15;;;20.70;75.80;;;;;;5024366;28;20095;-71
2021/05/06 14:54:05;;;;;;;7.75;1.90;;;20.80;76.60;;;;;;5013281;28;20079;-71
2021/05/06 14:56:31;;;;;;;14.00;2.70;;;20.80;75.90;;;;;;5004458;28;20026;-71
2021/05/06 14:58:57;;;;;;;5.78;1.42;;;20.80;76.40;;;;;;5023441;28;20612;-72
2021/05/06 15:01:23;;;;;;;9.13;1.70;;;20.70;75.90;;;;;;5024309;28;20033;-72
2021/05/06 15:03:48;;;;;;;4.68;1.30;;;20.30;75.20;;;;;;5005020;28;20594;-71
2021/05/06 15:06:14;;;;;;;8.55;2.90;;;20.20;76.60;;;;;;5004385;28;20081;-72
2021/05/06 15:08:43;;;;;;;5.65;1.92;;;20.00;76.90;;;;;;5004343;28;20029;-72
2021/05/06 15:11:12;;;;;;;7.93;2.33;;;19.90;76.90;;;;;;5003487;28;20026;-72
2021/05/06 15:13:38;;;;;;;11.63;2.63;;;19.80;77.20;;;;;;5024365;28;20029;-72
2021/05/06 15:16:04;;;;;;;6.28;1.55;;;19.80;77.70;;;;;;5023988;28;20021;-72
2021/05/06 15:18:30;;;;;;;7.45;2.20;;;20.10;76.20;;;;;;5022084;28;20085;-71
2021/05/06 15:20:55;;;;;;;6.18;1.73;;;20.10;75.90;;;;;;5003887;28;20152;-72
2021/05/06 15:23:21;;;;;;;4.43;1.63;;;20.30;75.50;;;;;;5004174;28;20061;-72
2021/05/06 15:25:47;;;;;;;3.90;1.67;;;20.50;74.70;;;;;;5004442;28;20111;-72
2021/05/06 15:28:13;;;;;;;2.58;1.27;;;20.40;75.10;;;;;;5004500;28;20361;-72
2021/05/06 15:30:39;;;;;;;4.45;1.52;;;20.60;74.30;;;;;;5004129;28;20030;-71
2021/05/06 15:33:05;;;;;;;4.53;1.73;;;20.50;74.70;;;;;;5004530;28;20034;-71
2021/05/06 15:35:30;;;;;;;10.13;2.13;;;20.40;74.80;;;;;;5004794;28;20030;-72
2021/05/06 15:37:56;;;;;;;10.75;2.05;;;20.40;75.00;;;;;;5023624;28;20373;-72
2021/05/06 15:40:22;;;;;;;7.68;1.95;;;20.20;74.70;;;;;;5017563;28;20112;-71
2021/05/06 15:42:48;;;;;;;6.95;1.60;;;20.40;75.50;;;;;;5020578;28;20025;-71
2021/05/06 15:45:14;;;;;;;6.45;1.75;;;20.40;76.60;;;;;;5023625;28;20038;-72
2021/05/06 15:47:40;;;;;;;6.95;1.67;;;20.20;76.70;;;;;;5024064;28;20033;-71
2021/05/06 15:50:09;;;;;;;4.50;1.92;;;20.40;77.60;;;;;;5022924;28;20030;-71
2021/05/06 15:52:35;;;;;;;7.53;2.35;;;20.40;78.40;;;;;;5023415;28;20038;-71
2021/05/06 15:55:01;;;;;;;6.35;1.98;;;20.10;77.10;;;;;;5012889;28;20029;-71
2021/05/06 15:57:27;;;;;;;5.07;1.45;;;19.90;78.00;;;;;;5005988;28;20022;-72
2021/05/06 15:59:52;;;;;;;8.77;2.40;;;19.60;79.70;;;;;;5007588;28;20104;-71
2021/05/06 16:02:21;;;;;;;4.20;1.77;;;19.50;79.10;;;;;;5007744;28;20465;-71
2021/05/06 16:04:47;;;;;;;3.88;1.50;;;19.40;79.70;;;;;;5010141;28;20025;-71
2021/05/06 16:07:12;;;;;;;6.53;1.75;;;19.40;79.70;;;;;;5027092;28;20373;-71
2021/05/06 16:09:38;;;;;;;12.05;4.85;;;19.10;80.20;;;;;;5025783;28;20040;-71
2021/05/06 16:12:04;;;;;;;11.35;2.67;;;18.90;81.00;;;;;;5006808;28;20046;-71
2021/05/06 16:14:30;;;;;;;13.07;2.08;;;18.60;82.00;;;;;;5007895;28;20029;-71
2021/05/06 16:16:55;;;;;;;5.03;1.50;;;18.50;81.60;;;;;;5007392;28;20022;-71
2021/05/06 16:19:23;;;;;;;7.22;1.88;;;18.50;82.50;;;;;;5007389;28;20115;-71
2021/05/06 16:21:49;;;;;;;5.93;1.80;;;18.40;82.60;;;;;;5025754;28;20128;-71
2021/05/06 16:24:15;;;;;;;8.10;2.08;;;18.40;83.20;;;;;;5026622;28;20112;-71
2021/05/06 16:26:41;;;;;;;6.07;2.10;;;18.20;83.20;;;;;;5014887;28;20555;-71
2021/05/06 16:29:07;;;;;;;5.90;2.03;;;18.10;84.50;;;;;;5026786;28;20033;-71
2021/05/06 16:31:32;;;;;;;9.90;2.50;;;18.00;84.50;;;;;;5008322;28;20033;-72
2021/05/06 16:34:01;;;;;;;10.73;2.28;;;18.00;85.30;;;;;;5007350;28;20029;-71